Time;durP1;ratioP1;P1;durP2;ratioP2;P2;SDS_P1;SDS_P2;PMS_P1;PMS_P2;Temp;Humidity;BMP_temperature;BMP_pressure;BME280_temperature;BME280_humidity;BME280_pressure;Samples;Min_cycle;Max_cycle;Signal;HPM_P1;HPM_P2
2022/04/03 00:00:46;;;;;;;;;;;;;;;3.47;75.15;98546.44;5225492;27;33798;-83
2022/04/03 00:03:19;;;;;;;;;;;;;;;3.40;75.62;98549.88;5230950;27;34971;-82
2022/04/03 00:05:47;;;;;;;;;;;;;;;3.33;76.01;98548.19;5227468;27;34274;-82
2022/04/03 00:08:15;;;;;;;;;;;;;;;3.01;77.32;98543.13;5222405;27;33989;-82
2022/04/03 00:10:45;;;;;;;;;;;;;;;3.09;77.20;98554.22;5223786;27;33402;-81
2022/04/03 00:13:14;;;;;;;;;;;;;;;3.05;77.18;98553.37;5223017;27;34126;-81
2022/04/03 00:15:42;;;;;;;;;;;;;;;3.14;77.13;98555.06;5228631;27;34352;-82
2022/04/03 00:18:12;;;;;;;;;;;;;;;3.01;77.26;98551.66;5229915;27;34037;-81
2022/04/03 00:20:41;;;;;;;;;;;;;;;3.20;77.19;98557.62;5223854;27;32725;-81
2022/04/03 00:23:10;;;;;;;;;;;;;;;3.20;76.03;98555.91;5224846;27;34194;-81
2022/04/03 00:25:39;;;;;;;;;;;;;;;3.29;75.81;98564.44;5224881;27;34962;-81
2022/04/03 00:28:07;;;;;;;;;;;;;;;3.22;76.91;98563.59;5224104;27;33939;-81
2022/04/03 00:30:36;;;;;;;;;;;;;;;3.14;76.96;98567.87;5231104;27;34026;-81
2022/04/03 00:33:04;;;;;;;;;;;;;;;2.83;77.88;98567.91;5224347;27;34204;-81
2022/04/03 00:35:34;;;;;;;;;;;;;;;2.75;78.61;98569.59;5224342;27;34313;-81
2022/04/03 00:38:02;;;;;;;;;;;;;;;2.75;78.70;98577.28;5223906;27;34260;-81
2022/04/03 00:40:31;;;;;;;;;;;;;;;2.42;79.98;98571.31;5223992;27;33348;-81
2022/04/03 00:43:03;;;;;;;;;;;;;;;2.71;79.66;98573.88;5230842;27;33876;-81
2022/04/03 00:45:31;;;;;;;;;;;;;;;2.33;80.30;98573.84;5224219;27;35723;-81
2022/04/03 00:47:59;;;;;;;;;;;;;;;2.31;80.94;98584.06;5224235;27;34541;-81
2022/04/03 00:50:28;;;;;;;;;;;;;;;2.49;79.83;98583.25;5223928;27;34523;-81
2022/04/03 00:52:58;;;;;;;;;;;;;;;2.81;79.22;98584.97;5224326;27;33791;-81
2022/04/03 00:55:27;;;;;;;;;;;;;;;2.40;81.08;98585.78;5230380;27;34409;-81
2022/04/03 00:57:57;;;;;;;;;;;;;;;2.19;81.40;98589.16;5224384;27;33904;-81
2022/04/03 01:00:25;;;;;;;;;;;;;;;2.38;81.43;98586.66;5223930;27;33143;-81
2022/04/03 01:02:53;;;;;;;;;;;;;;;2.31;81.92;98594.28;5221913;27;34212;-81
2022/04/03 01:05:23;;;;;;;;;;;;;;;2.32;81.69;98592.59;5224062;27;34401;-81
2022/04/03 01:07:51;;;;;;;;;;;;;;;2.12;83.04;98605.34;5228219;27;34868;-81
2022/04/03 01:10:21;;;;;;;;;;;;;;;2.08;83.00;98607.03;5230849;27;33151;-81
2022/04/03 01:12:50;;;;;;;;;;;;;;;1.86;83.73;98602.69;5225184;27;32992;-80
2022/04/03 01:15:19;;;;;;;;;;;;;;;2.22;82.29;98608.78;5225065;27;34595;-81
2022/04/03 01:17:47;;;;;;;;;;;;;;;2.11;82.60;98609.59;5225297;27;33651;-81
2022/04/03 01:20:17;;;;;;;;;;;;;;;2.57;81.29;98611.44;5225155;27;33520;-81
2022/04/03 01:22:46;;;;;;;;;;;;;;;2.61;80.53;98612.25;5231555;27;34339;-81
2022/04/03 01:25:16;;;;;;;;;;;;;;;2.85;79.46;98609.75;5225033;27;34312;-81
2022/04/03 01:27:47;;;;;;;;;;;;;;;3.24;78.38;98615.72;5224497;27;35161;-81
2022/04/03 01:30:15;;;;;;;;;;;;;;;2.97;78.43;98612.31;5224942;27;33683;-81
2022/04/03 01:32:44;;;;;;;;;;;;;;;2.72;79.21;98619.13;5224990;27;34974;-81
2022/04/03 01:35:13;;;;;;;;;;;;;;;3.22;77.94;98617.41;5231819;27;34944;-80
2022/04/03 01:37:42;;;;;;;;;;;;;;;3.43;77.12;98619.09;5225021;27;34894;-81
2022/04/03 01:40:12;;;;;;;;;;;;;;;3.39;77.76;98628.50;5225085;27;33392;-81
2022/04/03 01:42:42;;;;;;;;;;;;;;;3.15;78.14;98623.41;5225016;27;34204;-81
2022/04/03 01:45:10;;;;;;;;;;;;;;;3.44;77.25;98630.22;5224697;27;33977;-81
2022/04/03 01:47:38;;;;;;;;;;;;;;;2.86;78.97;98637.06;5232230;27;33812;-81
2022/04/03 01:50:08;;;;;;;;;;;;;;;3.39;77.57;98633.62;5226391;27;34927;-81
2022/04/03 01:52:36;;;;;;;;;;;;;;;3.36;77.76;98633.62;5225507;27;34977;-81
2022/04/03 01:55:06;;;;;;;;;;;;;;;3.05;78.03;98637.94;5227830;27;34813;-81
2022/04/03 01:57:34;;;;;;;;;;;;;;;3.09;78.21;98644.75;5225855;27;34627;-81
2022/04/03 02:00:06;;;;;;;;;;;;;;;3.13;78.51;98655.88;5233854;27;32835;-81
2022/04/03 02:02:35;;;;;;;;;;;;;;;3.42;77.01;98654.13;5227349;27;34981;-81
2022/04/03 02:05:04;;;;;;;;;;;;;;;3.23;77.77;98654.16;5226984;27;34100;-81
2022/04/03 02:07:33;;;;;;;;;;;;;;;3.16;77.51;98654.13;5227355;27;33714;-81
2022/04/03 02:10:02;;;;;;;;;;;;;;;2.96;78.07;98656.69;5227550;27;33185;-81
2022/04/03 02:12:30;;;;;;;;;;;;;;;3.24;78.19;98663.53;5233712;27;34752;-81
2022/04/03 02:14:59;;;;;;;;;;;;;;;3.66;76.35;98660.09;5227149;27;34339;-81
2022/04/03 02:17:29;;;;;;;;;;;;;;;3.47;76.73;98666.09;5227434;27;33613;-81
2022/04/03 02:19:57;;;;;;;;;;;;;;;3.98;74.53;98657.41;5227631;27;33684;-81
2022/04/03 02:22:26;;;;;;;;;;;;;;;3.91;74.95;98660.00;5227382;27;34945;-81
2022/04/03 02:24:55;;;;;;;;;;;;;;;3.87;74.03;98660.88;5234375;27;34111;-81
2022/04/03 02:27:24;;;;;;;;;;;;;;;3.95;72.86;98664.28;5227549;27;34016;-81
2022/04/03 02:29:53;;;;;;;;;;;;;;;3.88;73.29;98662.59;5227035;27;33458;-80
2022/04/03 02:32:21;;;;;;;;;;;;;;;3.86;72.93;98670.28;5227474;27;35076;-81
2022/04/03 02:34:51;;;;;;;;;;;;;;;3.39;74.98;98666.13;5227107;27;34344;-81
2022/04/03 02:37:19;;;;;;;;;;;;;;;3.87;72.42;98666.00;5232846;27;34098;-81
2022/04/03 02:39:48;;;;;;;;;;;;;;;3.55;72.90;98674.63;5229986;27;34315;-80
2022/04/03 02:42:16;;;;;;;;;;;;;;;3.37;74.66;98676.34;5227339;27;34181;-80
2022/04/03 02:44:45;;;;;;;;;;;;;;;3.44;74.07;98684.06;5226867;27;34805;-80
2022/04/03 02:47:14;;;;;;;;;;;;;;;3.18;75.01;98685.75;5227200;27;34100;-81
2022/04/03 02:49:42;;;;;;;;;;;;;;;3.59;73.79;98686.59;5227974;27;33412;-81
2022/04/03 02:52:12;;;;;;;;;;;;;;;3.52;74.52;98685.75;5234043;27;34146;-80
2022/04/03 02:54:41;;;;;;;;;;;;;;;3.33;75.12;98699.44;5226934;27;34094;-80
2022/04/03 02:57:12;;;;;;;;;;;;;;;3.09;75.94;98701.12;5227115;27;34214;-81
2022/04/03 02:59:41;;;;;;;;;;;;;;;3.42;74.64;98695.16;5227076;27;33320;-81
2022/04/03 03:02:10;;;;;;;;;;;;;;;3.51;73.77;98696.88;5227515;27;34837;-80
2022/04/03 03:04:39;;;;;;;;;;;;;;;3.92;72.14;98707.94;5233899;27;34610;-81
2022/04/03 03:07:07;;;;;;;;;;;;;;;3.51;73.68;98708.84;5226738;27;35326;-80
2022/04/03 03:09:37;;;;;;;;;;;;;;;3.29;74.75;98708.84;5227069;27;33323;-81
2022/04/03 03:12:07;;;;;;;;;;;;;;;3.42;75.32;98712.25;5227423;27;33724;-81
2022/04/03 03:14:36;;;;;;;;;;;;;;;3.41;74.85;98718.25;5227103;27;34254;-81
2022/04/03 03:17:04;;;;;;;;;;;;;;;3.45;75.09;98721.66;5234312;27;33991;-81
2022/04/03 03:19:33;;;;;;;;;;;;;;;3.44;75.02;98725.06;5227530;27;34030;-81
2022/04/03 03:22:01;;;;;;;;;;;;;;;3.26;76.06;98728.47;5226812;27;34078;-80
2022/04/03 03:24:29;;;;;;;;;;;;;;;3.41;75.94;98739.59;5225623;27;33970;-81
2022/04/03 03:27:00;;;;;;;;;;;;;;;3.93;73.83;98731.00;5227149;27;34200;-80
2022/04/03 03:29:28;;;;;;;;;;;;;;;4.19;72.85;98735.22;5233395;27;33142;-81
2022/04/03 03:31:57;;;;;;;;;;;;;;;4.25;72.22;98743.78;5230139;27;34851;-80
2022/04/03 03:34:26;;;;;;;;;;;;;;;4.07;72.48;98743.81;5226928;27;34790;-81
2022/04/03 03:36:54;;;;;;;;;;;;;;;4.04;73.20;98751.53;5227268;27;34112;-80
2022/04/03 03:39:24;;;;;;;;;;;;;;;4.46;70.87;98754.81;5227002;27;33276;-81
2022/04/03 03:41:54;;;;;;;;;;;;;;;4.51;70.41;98755.66;5226989;27;34246;-80
2022/04/03 03:44:24;;;;;;;;;;;;;;;4.50;69.90;98751.37;5233202;27;34814;-80
2022/04/03 03:46:52;;;;;;;;;;;;;;;4.40;69.93;98763.41;5227074;27;34209;-80
2022/04/03 03:49:21;;;;;;;;;;;;;;;4.67;69.00;98767.56;5227010;27;33460;-80
2022/04/03 03:51:49;;;;;;;;;;;;;;;4.24;70.42;98760.00;5226285;27;34833;-80
2022/04/03 03:54:18;;;;;;;;;;;;;;;4.50;69.63;98761.66;5226925;27;34646;-81
2022/04/03 03:56:47;;;;;;;;;;;;;;;4.38;70.15;98771.97;5231764;27;35052;-80
2022/04/03 03:59:15;;;;;;;;;;;;;;;4.20;70.67;98770.28;5227299;27;33647;-80
2022/04/03 04:01:45;;;;;;;;;;;;;;;4.40;69.80;98776.25;5227213;27;34878;-80
2022/04/03 04:04:14;;;;;;;;;;;;;;;4.16;70.40;98778.88;5229821;27;35086;-80
2022/04/03 04:06:42;;;;;;;;;;;;;;;3.97;71.33;98784.03;5227028;27;34952;-80
2022/04/03 04:09:12;;;;;;;;;;;;;;;3.69;72.87;98792.59;5231233;27;33486;-80
2022/04/03 04:11:41;;;;;;;;;;;;;;;3.85;72.15;98792.59;5227394;27;34188;-81
2022/04/03 04:14:09;;;;;;;;;;;;;;;3.68;72.85;98799.44;5227156;27;35223;-80
2022/04/03 04:16:38;;;;;;;;;;;;;;;3.69;72.62;98800.28;5225922;27;34842;-80
2022/04/03 04:19:09;;;;;;;;;;;;;;;3.96;71.88;98799.41;5226880;27;33404;-79
2022/04/03 04:21:38;;;;;;;;;;;;;;;3.49;72.95;98803.69;5233084;27;34293;-80
2022/04/03 04:24:07;;;;;;;;;;;;;;;3.59;72.85;98807.13;5232582;27;34284;-80
2022/04/03 04:26:36;;;;;;;;;;;;;;;3.98;71.20;98818.25;5226971;27;33746;-80
2022/04/03 04:29:05;;;;;;;;;;;;;;;3.89;71.42;98818.25;5226811;27;33533;-80
2022/04/03 04:31:33;;;;;;;;;;;;;;;3.37;73.24;98822.47;5227005;27;34137;-80
2022/04/03 04:34:03;;;;;;;;;;;;;;;3.32;73.57;98828.47;5226255;27;34351;-80
2022/04/03 04:36:33;;;;;;;;;;;;;;;3.34;73.70;98834.47;5233298;27;34618;-80
2022/04/03 04:39:01;;;;;;;;;;;;;;;3.58;72.96;98841.34;5226778;27;33410;-80
2022/04/03 04:41:30;;;;;;;;;;;;;;;3.29;74.13;98842.13;5227483;27;34860;-80
2022/04/03 04:43:58;;;;;;;;;;;;;;;3.33;74.41;98845.53;5227500;27;34015;-80
2022/04/03 04:46:27;;;;;;;;;;;;;;;3.32;74.62;98856.66;5227443;27;34586;-80
2022/04/03 04:48:55;;;;;;;;;;;;;;;3.47;73.99;98856.69;5234674;27;34216;-80
2022/04/03 04:51:24;;;;;;;;;;;;;;;3.41;74.50;98860.09;5227772;27;33888;-80
2022/04/03 04:53:53;;;;;;;;;;;;;;;3.53;74.63;98866.13;5227749;27;34261;-80
2022/04/03 04:56:22;;;;;;;;;;;;;;;3.68;74.06;98865.28;5227146;27;34722;-80
2022/04/03 04:58:50;;;;;;;;;;;;;;;3.79;73.07;98864.44;5228063;27;34162;-80
2022/04/03 05:01:19;;;;;;;;;;;;;;;3.85;73.15;98878.97;5234487;27;34616;-80
2022/04/03 05:03:47;;;;;;;;;;;;;;;3.92;72.61;98879.84;5227171;27;34158;-80
2022/04/03 05:06:16;;;;;;;;;;;;;;;3.92;72.47;98882.41;5227083;27;34505;-80
2022/04/03 05:08:45;;;;;;;;;;;;;;;3.52;74.29;98880.63;5198537;27;783907;-80
2022/04/03 05:11:14;;;;;;;;;;;;;;;3.70;73.19;98887.50;5227525;27;34222;-80
2022/04/03 05:13:43;;;;;;;;;;;;;;;3.81;73.39;98885.78;5234617;27;34995;-80
2022/04/03 05:16:11;;;;;;;;;;;;;;;3.54;73.68;98893.47;5227348;27;34532;-80
2022/04/03 05:18:40;;;;;;;;;;;;;;;3.46;75.02;98897.72;5227562;27;33064;-80
2022/04/03 05:21:08;;;;;;;;;;;;;;;3.68;73.70;98902.03;5227542;27;34241;-81
2022/04/03 05:23:37;;;;;;;;;;;;;;;3.79;73.14;98905.50;5227616;27;34172;-80
2022/04/03 05:26:06;;;;;;;;;;;;;;;3.53;74.49;98909.72;5227689;27;33539;-80
2022/04/03 05:28:36;;;;;;;;;;;;;;;3.68;74.00;98917.44;5234375;27;34191;-80
2022/04/03 05:31:05;;;;;;;;;;;;;;;3.72;74.25;98923.41;5227431;27;33294;-80
2022/04/03 05:33:33;;;;;;;;;;;;;;;3.74;73.77;98917.44;5227137;27;35086;-80
2022/04/03 05:36:01;;;;;;;;;;;;;;;3.76;74.12;98922.56;5227252;27;34514;-80
2022/04/03 05:38:31;;;;;;;;;;;;;;;3.83;74.08;98927.72;5227558;27;34268;-80
2022/04/03 05:41:00;;;;;;;;;;;;;;;3.99;73.63;98925.19;5234251;27;34443;-81
2022/04/03 05:43:28;;;;;;;;;;;;;;;4.01;72.85;98926.91;5227467;27;33693;-79
2022/04/03 05:45:58;;;;;;;;;;;;;;;4.02;72.92;98932.88;5226917;27;34483;-80
2022/04/03 05:48:26;;;;;;;;;;;;;;;4.08;72.66;98938.00;5227688;27;33476;-81
2022/04/03 05:50:55;;;;;;;;;;;;;;;4.08;72.98;98938.00;5227492;27;33715;-80
2022/04/03 05:53:23;;;;;;;;;;;;;;;4.18;72.33;98936.28;5234597;27;34400;-81
2022/04/03 05:55:54;;;;;;;;;;;;;;;4.12;72.16;98938.88;5227304;27;33041;-80
2022/04/03 05:58:23;;;;;;;;;;;;;;;3.96;72.03;98945.69;5227345;27;33395;-80
2022/04/03 06:00:52;;;;;;;;;;;;;;;3.80;72.91;98953.38;5228458;27;34786;-80
2022/04/03 06:03:22;;;;;;;;;;;;;;;3.89;72.61;98954.22;5227209;27;35055;-80
2022/04/03 06:05:51;;;;;;;;;;;;;;;3.75;73.22;98959.34;5233867;27;34264;-80
2022/04/03 06:08:19;;;;;;;;;;;;;;;3.39;74.21;98963.50;5225084;27;31537;-80
2022/04/03 06:10:48;;;;;;;;;;;;;;;3.47;74.12;98956.69;5228273;27;35449;-80
2022/04/03 06:13:17;;;;;;;;;;;;;;;3.30;74.63;98966.03;5227534;27;34872;-80
2022/04/03 06:15:47;;;;;;;;;;;;;;;3.05;75.88;98968.47;5227624;27;35029;-80
2022/04/03 06:18:16;;;;;;;;;;;;;;;3.20;75.72;98960.84;5228650;27;32595;-81
2022/04/03 06:20:47;;;;;;;;;;;;;;;3.05;75.93;98973.59;5234066;27;34697;-81
2022/04/03 06:23:17;;;;;;;;;;;;;;;3.19;75.97;98973.69;5227513;27;33348;-81
2022/04/03 06:25:46;;;;;;;;;;;;;;;3.21;75.63;98979.66;5227090;27;34497;-81
2022/04/03 06:28:14;;;;;;;;;;;;;;;3.20;76.06;98980.50;5227000;27;33594;-81
2022/04/03 06:30:44;;;;;;;;;;;;;;;3.17;76.54;98988.19;5226933;27;33615;-81
2022/04/03 06:33:18;;;;;;;;;;;;;;;3.29;76.07;98990.81;5233427;27;34362;-82
2022/04/03 06:35:49;;;;;;;;;;;;;;;3.66;75.14;98995.22;5227286;27;33971;-82
2022/04/03 06:38:17;;;;;;;;;;;;;;;3.61;74.86;98992.66;5227282;27;33155;-81
2022/04/03 06:40:48;;;;;;;;;;;;;;;3.66;74.41;99005.50;5226649;27;33873;-81
2022/04/03 06:43:18;;;;;;;;;;;;;;;3.62;74.01;99004.59;5227234;27;34781;-81
2022/04/03 06:45:47;;;;;;;;;;;;;;;3.44;74.31;99005.41;5233392;27;34069;-82
2022/04/03 06:48:16;;;;;;;;;;;;;;;3.07;75.95;99009.47;5231999;27;34155;-82
2022/04/03 06:50:45;;;;;;;;;;;;;;;2.95;76.51;99018.81;5227747;27;34162;-82
2022/04/03 06:53:14;;;;;;;;;;;;;;;3.04;76.35;99020.56;5227298;27;34298;-82
2022/04/03 06:55:43;;;;;;;;;;;;;;;3.03;76.33;99018.00;5227029;27;33432;-82
2022/04/03 06:58:11;;;;;;;;;;;;;;;3.04;76.88;99030.81;5227538;27;33445;-82
2022/04/03 07:00:41;;;;;;;;;;;;;;;3.30;76.64;99030.97;5233934;27;34128;-82
2022/04/03 07:03:09;;;;;;;;;;;;;;;3.22;75.43;99035.19;5227028;27;33897;-81
2022/04/03 07:05:38;;;;;;;;;;;;;;;2.90;77.31;99035.88;5226865;27;34781;-82
2022/04/03 07:08:06;;;;;;;;;;;;;;;3.22;76.89;99040.34;5226706;27;33365;-82
2022/04/03 07:10:36;;;;;;;;;;;;;;;3.39;76.71;99045.56;5228854;27;34061;-82
2022/04/03 07:13:05;;;;;;;;;;;;;;;3.52;76.35;99051.59;5233525;27;34289;-82
2022/04/03 07:15:33;;;;;;;;;;;;;;;3.29;76.31;99046.34;5226891;27;34239;-82
2022/04/03 07:18:05;;;;;;;;;;;;;;;3.06;77.01;99053.88;5226938;27;33844;-82
2022/04/03 07:20:33;;;;;;;;;;;;;;;3.17;76.46;99065.09;5227450;27;34900;-81
2022/04/03 07:23:02;;;;;;;;;;;;;;;2.97;77.27;99063.25;5227034;27;34180;-82
2022/04/03 07:25:30;;;;;;;;;;;;;;;3.11;76.54;99068.44;5214761;27;33619;-82
2022/04/03 07:28:00;;;;;;;;;;;;;;;3.33;75.54;99078.84;5227726;27;32899;-82
2022/04/03 07:30:28;;;;;;;;;;;;;;;3.34;75.27;99070.31;5229256;27;34275;-82
2022/04/03 07:32:57;;;;;;;;;;;;;;;3.21;75.50;99087.31;5227413;27;34500;-82
2022/04/03 07:35:26;;;;;;;;;;;;;;;3.20;75.06;99098.41;5227146;27;34403;-82
2022/04/03 07:37:54;;;;;;;;;;;;;;;3.01;75.33;99091.44;5230793;27;33476;-82
2022/04/03 07:40:23;;;;;;;;;;;;;;;2.63;75.86;99095.38;5231661;27;35460;-82
2022/04/03 07:43:14;;;;;;;;;;;;;;;2.39;77.22;99106.25;5227337;27;34180;-82
2022/04/03 07:45:43;;;;;;;;;;;;;;;2.53;77.55;99109.81;5226122;27;33628;-82
2022/04/03 07:48:12;;;;;;;;;;;;;;;3.08;76.44;99123.97;5227724;27;33418;-83
2022/04/03 07:50:40;;;;;;;;;;;;;;;2.76;74.69;99121.97;5228076;27;34806;-83
2022/04/03 07:53:09;;;;;;;;;;;;;;;2.64;75.48;99119.31;5233106;27;35309;-83
2022/04/03 07:55:37;;;;;;;;;;;;;;;2.69;76.37;99130.44;5227421;27;33651;-82
2022/04/03 07:58:06;;;;;;;;;;;;;;;2.68;74.51;99132.16;5226576;27;33118;-83
2022/04/03 08:00:36;;;;;;;;;;;;;;;2.77;75.71;99137.34;5226481;27;34168;-83
2022/04/03 08:03:05;;;;;;;;;;;;;;;3.02;74.15;99145.28;5227138;27;35087;-82
2022/04/03 08:05:34;;;;;;;;;;;;;;;3.32;73.41;99138.66;5230011;27;34462;-83
2022/04/03 08:08:02;;;;;;;;;;;;;;;3.15;75.00;99147.06;5232300;27;33371;-83
2022/04/03 08:10:31;;;;;;;;;;;;;;;3.35;72.18;99156.63;5226793;27;33889;-83
2022/04/03 08:12:59;;;;;;;;;;;;;;;3.42;71.52;99161.78;5226280;27;34848;-83
2022/04/03 08:15:28;;;;;;;;;;;;;;;3.40;72.46;99158.34;5226168;27;34913;-83
2022/04/03 08:17:58;;;;;;;;;;;;;;;3.26;71.71;99164.22;5226427;27;34065;-83
2022/04/03 08:20:26;;;;;;;;;;;;;;;3.29;73.37;99164.28;5231865;27;33322;-83
2022/04/03 08:22:55;;;;;;;;;;;;;;;3.83;71.13;99166.31;5227333;27;34179;-83
2022/04/03 08:25:23;;;;;;;;;;;;;;;3.70;71.20;99173.97;5227378;27;34897;-83
2022/04/03 08:27:52;;;;;;;;;;;;;;;3.85;69.54;99180.03;5227170;27;33681;-83
2022/04/03 08:30:21;;;;;;;;;;;;;;;3.77;70.01;99178.25;5228109;27;34823;-83
2022/04/03 08:32:50;;;;;;;;;;;;;;;3.53;70.08;99181.56;5234056;27;35123;-83
2022/04/03 08:35:20;;;;;;;;;;;;;;;3.57;70.27;99189.25;5227952;27;34928;-83
2022/04/03 08:37:50;;;;;;;;;;;;;;;3.30;70.74;99197.59;5227605;27;32331;-83
2022/04/03 08:40:19;;;;;;;;;;;;;;;3.20;71.04;99193.25;5227636;27;35179;-84
2022/04/03 08:42:49;;;;;;;;;;;;;;;3.39;70.21;99192.56;5228044;27;34139;-83
2022/04/03 08:45:17;;;;;;;;;;;;;;;3.21;69.20;99202.66;5233774;27;34521;-82
2022/04/03 08:47:46;;;;;;;;;;;;;;;3.10;70.83;99196.59;5227180;27;33402;-83
2022/04/03 08:50:18;;;;;;;;;;;;;;;3.09;70.68;99197.41;5227451;27;34339;-83
2022/04/03 08:52:49;;;;;;;;;;;;;;;3.06;71.22;99193.13;5227574;27;34269;-83
2022/04/03 08:55:18;;;;;;;;;;;;;;;3.11;70.75;99199.16;5227671;27;33390;-83
2022/04/03 08:57:51;;;;;;;;;;;;;;;3.14;70.58;99203.44;5227532;27;34324;-83
2022/04/03 09:00:20;;;;;;;;;;;;;;;3.19;70.63;99205.22;5234184;27;34787;-83
2022/04/03 09:02:49;;;;;;;;;;;;;;;3.27;71.55;99215.53;5227823;27;34204;-83
2022/04/03 09:05:19;;;;;;;;;;;;;;;3.52;70.39;99208.87;5227150;27;33729;-83
2022/04/03 09:08:01;;;;;;;;;;;;;;;3.33;69.87;99212.16;5227309;27;32739;-83
2022/04/03 09:10:29;;;;;;;;;;;;;;;3.42;70.19;99195.13;5227823;27;33929;-84
2022/04/03 09:12:58;;;;;;;;;;;;;;;3.54;70.97;99206.34;5233864;27;34317;-84
2022/04/03 09:15:27;;;;;;;;;;;;;;;3.68;70.76;99209.84;5230278;27;34628;-84
2022/04/03 09:17:56;;;;;;;;;;;;;;;3.73;69.66;99197.06;5227084;27;33600;-85
2022/04/03 09:20:25;;;;;;;;;;;;;;;3.70;70.04;99215.87;5225183;27;34265;-84
2022/04/03 09:22:54;;;;;;;;;;;;;;;3.76;68.83;99228.72;5227777;27;34185;-84
2022/04/03 09:25:25;;;;;;;;;;;;;;;3.92;69.93;99227.12;5223750;27;33789;-84
2022/04/03 09:27:54;;;;;;;;;;;;;;;4.01;69.38;99224.63;5232537;27;34149;-85
2022/04/03 09:30:23;;;;;;;;;;;;;;;4.42;69.82;99230.78;5226826;27;34324;-84
2022/04/03 09:32:52;;;;;;;;;;;;;;;4.33;68.73;99216.22;5227037;27;34975;-84
2022/04/03 09:35:21;;;;;;;;;;;;;;;4.31;67.95;99224.75;5225169;27;35035;-84
2022/04/03 09:38:06;;;;;;;;;;;;;;;4.41;68.62;99229.06;5225019;27;32649;-85
2022/04/03 09:40:36;;;;;;;;;;;;;;;4.49;67.04;99238.53;5233619;27;33875;-83
2022/04/03 09:43:15;;;;;;;;;;;;;;;4.66;69.01;99233.47;5227054;27;33838;-85
2022/04/03 09:45:44;;;;;;;;;;;;;;;4.78;68.40;99249.75;5226626;27;34428;-84
2022/04/03 09:48:19;;;;;;;;;;;;;;;4.48;66.88;99234.25;5227934;27;33276;-85
2022/04/03 09:50:54;;;;;;;;;;;;;;;4.40;66.36;99250.50;5226811;27;34749;-84
2022/04/03 09:53:23;;;;;;;;;;;;;;;4.11;67.00;99251.19;5227559;27;34960;-85
2022/04/03 09:55:53;;;;;;;;;;;;;;;4.31;67.30;99261.56;5234099;27;34470;-84
2022/04/03 09:58:22;;;;;;;;;;;;;;;4.35;67.56;99250.47;5227129;27;32645;-85
2022/04/03 10:00:50;;;;;;;;;;;;;;;4.29;67.58;99258.12;5227447;27;34258;-85
2022/04/03 10:03:19;;;;;;;;;;;;;;;4.58;67.68;99262.53;5228463;27;33652;-84
2022/04/03 10:05:48;;;;;;;;;;;;;;;4.54;66.33;99256.50;5225941;27;34632;-84
2022/04/03 10:08:16;;;;;;;;;;;;;;;4.67;66.54;99262.59;5233483;27;33244;-84
2022/04/03 10:10:47;;;;;;;;;;;;;;;4.79;64.02;99256.63;5228997;27;34650;-85
2022/04/03 10:13:17;;;;;;;;;;;;;;;4.65;65.78;99261.72;5227508;27;34909;-84
2022/04/03 10:15:48;;;;;;;;;;;;;;;4.57;64.96;99265.97;5227541;27;33976;-84
2022/04/03 10:18:16;;;;;;;;;;;;;;;4.87;66.27;99273.78;5227328;27;33663;-84
2022/04/03 10:20:44;;;;;;;;;;;;;;;4.77;63.45;99268.63;5226922;27;34183;-84
2022/04/03 10:23:13;;;;;;;;;;;;;;;4.99;64.99;99264.38;5233754;27;35172;-84
2022/04/03 10:25:44;;;;;;;;;;;;;;;5.33;63.58;99273.03;5227280;27;34011;-84
2022/04/03 10:28:12;;;;;;;;;;;;;;;5.17;62.28;99273.84;5224975;27;33315;-84
2022/04/03 10:30:43;;;;;;;;;;;;;;;5.60;62.16;99276.47;5224057;27;33822;-84
2022/04/03 10:33:17;;;;;;;;;;;;;;;5.30;60.60;99276.44;5226680;27;35009;-84
2022/04/03 10:35:47;;;;;;;;;;;;;;;5.03;60.13;99281.56;5232585;27;35051;-84
2022/04/03 10:38:15;;;;;;;;;;;;;;;5.03;63.59;99284.13;5223915;27;33047;-84
2022/04/03 10:40:56;;;;;;;;;;;;;;;5.23;61.76;99285.00;5226727;27;33872;-84
2022/04/03 10:43:26;;;;;;;;;;;;;;;5.35;62.24;99289.31;5226058;27;35393;-85
2022/04/03 10:45:56;;;;;;;;;;;;;;;5.42;61.92;99282.47;5226398;27;33861;-85
2022/04/03 10:48:34;;;;;;;;;;;;;;;5.25;60.06;99283.31;5226705;27;32499;-84
2022/04/03 10:51:04;;;;;;;;;;;;;;;5.33;59.61;99294.44;5249587;27;31900;-84
2022/04/03 10:53:34;;;;;;;;;;;;;;;5.13;60.17;99296.12;5227345;27;33355;-84
2022/04/03 10:56:07;;;;;;;;;;;;;;;5.07;59.69;99285.81;5227017;27;33992;-84
2022/04/03 10:58:54;;;;;;;;;;;;;;;5.04;59.17;99278.97;5227309;27;33413;-84
2022/04/03 11:01:27;;;;;;;;;;;;;;;5.25;58.56;99277.31;5227236;27;34310;-84
2022/04/03 11:03:57;;;;;;;;;;;;;;;5.49;58.42;99294.50;5227306;27;34269;-84
2022/04/03 11:06:29;;;;;;;;;;;;;;;5.68;57.87;99296.22;5233557;27;34922;-84
2022/04/03 11:09:01;;;;;;;;;;;;;;;5.96;58.12;99298.78;5227027;27;33149;-84
2022/04/03 11:11:51;;;;;;;;;;;;;;;5.86;56.77;99300.50;5227456;27;34037;-84
2022/04/03 11:14:43;;;;;;;;;;;;;;;5.87;57.60;99304.78;5229493;27;34121;-84
2022/04/03 11:17:13;;;;;;;;;;;;;;;6.18;57.74;99300.47;5227386;27;33761;-84
2022/04/03 11:19:43;;;;;;;;;;;;;;;5.97;57.15;99311.69;5227391;27;33966;-84
2022/04/03 11:22:15;;;;;;;;;;;;;;;6.40;57.76;99305.59;5227916;27;33276;-84
2022/04/03 11:24:44;;;;;;;;;;;;;;;6.52;55.38;99312.44;5233788;27;34877;-85
2022/04/03 11:27:13;;;;;;;;;;;;;;;6.84;56.37;99312.34;5226815;27;34938;-84
2022/04/03 11:29:42;;;;;;;;;;;;;;;6.33;54.66;99319.34;5227080;27;34316;-84
2022/04/03 11:32:12;;;;;;;;;;;;;;;6.03;54.65;99320.25;5228839;27;34586;-84
2022/04/03 11:34:42;;;;;;;;;;;;;;;5.98;54.52;99315.09;5227247;27;35611;-85
2022/04/03 11:37:13;;;;;;;;;;;;;;;5.94;52.33;99319.41;5234025;27;34722;-84
2022/04/03 11:39:42;;;;;;;;;;;;;;;6.12;53.21;99315.09;5230310;27;35024;-84
2022/04/03 11:42:11;;;;;;;;;;;;;;;6.68;54.00;99311.53;5225611;27;34222;-84
2022/04/03 11:44:41;;;;;;;;;;;;;;;6.41;53.43;99321.06;5226780;27;34025;-85
2022/04/03 11:47:19;;;;;;;;;;;;;;;6.35;54.08;99320.19;5226885;27;34090;-85
2022/04/03 11:49:49;;;;;;;;;;;;;;;6.27;53.47;99324.53;5233494;27;33132;-86
2022/04/03 11:52:19;;;;;;;;;;;;;;;6.45;53.79;99327.06;5226581;27;33300;-85
2022/04/03 11:54:57;;;;;;;;;;;;;;;6.13;52.14;99333.09;5226386;27;35145;-85
2022/04/03 11:57:25;;;;;;;;;;;;;;;6.07;52.38;99329.69;5231680;27;34319;-85
2022/04/03 11:59:55;;;;;;;;;;;;;;;6.32;53.18;99327.94;5228741;27;32865;-85
2022/04/03 12:02:23;;;;;;;;;;;;;;;5.95;51.51;99328.00;5233030;27;34492;-85
2022/04/03 12:04:56;;;;;;;;;;;;;;;5.92;54.91;99331.41;5225674;27;33543;-85
2022/04/03 12:07:24;;;;;;;;;;;;;;;6.37;53.44;99344.25;5226777;27;33790;-85
2022/04/03 12:09:53;;;;;;;;;;;;;;;6.53;52.71;99351.09;5226622;27;33522;-85
2022/04/03 12:12:24;;;;;;;;;;;;;;;6.31;52.20;99341.69;5226300;27;34011;-85
2022/04/03 12:14:52;;;;;;;;;;;;;;;6.40;52.11;99337.37;5226829;27;33953;-86
2022/04/03 12:17:21;;;;;;;;;;;;;;;6.31;53.09;99345.13;5233238;27;35023;-85
2022/04/03 12:19:51;;;;;;;;;;;;;;;6.24;51.52;99325.38;5227239;27;33608;-85
2022/04/03 12:22:22;;;;;;;;;;;;;;;6.39;52.67;99334.81;5226474;27;33574;-86
2022/04/03 12:24:52;;;;;;;;;;;;;;;6.24;50.33;99319.38;5226680;27;34094;-86
2022/04/03 12:27:22;;;;;;;;;;;;;;;6.31;50.50;99321.09;5226142;27;34302;-87
2022/04/03 12:29:51;;;;;;;;;;;;;;;6.77;49.26;99324.38;5231999;27;32762;-86
2022/04/03 12:32:29;;;;;;;;;;;;;;;6.75;49.27;99320.09;5226225;27;34404;-86
2022/04/03 12:34:58;;;;;;;;;;;;;;;6.76;49.51;99335.53;5226815;27;34192;-87
2022/04/03 12:37:32;;;;;;;;;;;;;;;6.56;49.98;99334.75;5226525;27;34222;-86
2022/04/03 12:40:04;;;;;;;;;;;;;;;6.66;49.28;99340.75;5225076;27;31381;-87
2022/04/03 12:42:35;;;;;;;;;;;;;;;6.80;48.28;99334.69;5226403;27;34102;-87
2022/04/03 12:45:05;;;;;;;;;;;;;;;6.94;46.71;99326.91;5230945;27;34822;-89
2022/04/03 12:47:37;;;;;;;;;;;;;;;6.96;46.78;99330.34;5205840;27;34970;-89
2022/04/03 12:50:16;;;;;;;;;;;;;;;6.74;47.94;99326.97;5225801;27;33355;-88
2022/04/03 12:52:50;;;;;;;;;;;;;;;6.75;47.33;99328.69;5224197;27;35607;-88
2022/04/03 12:55:41;;;;;;;;;;;;;;;7.04;45.99;99332.88;5207270;27;35123;-87
2022/04/03 12:58:30;;;;;;;;;;;;;;;7.14;46.38;99331.94;5226111;27;34587;-88
2022/04/03 13:01:10;;;;;;;;;;;;;;;7.24;47.39;99336.19;5229563;27;33320;-88
2022/04/03 13:03:40;;;;;;;;;;;;;;;7.38;47.47;99330.97;5235317;27;34065;-89
2022/04/03 13:06:09;;;;;;;;;;;;;;;7.51;46.72;99331.72;5227332;27;33683;-86
2022/04/03 13:08:52;;;;;;;;;;;;;;;7.59;45.99;99337.72;5228374;27;34382;-88
2022/04/03 13:11:27;;;;;;;;;;;;;;;7.43;45.87;99343.84;5228162;27;33418;-88